createdAt,value
2019-01-15T00:00:51.338Z,2.07
2019-01-15T00:03:58.307Z,2.00
2019-01-15T00:07:05.866Z,2.20
2019-01-15T00:10:13.106Z,1.83
2019-01-15T00:13:20.658Z,1.65
2019-01-15T00:16:27.626Z,2.47
2019-01-15T00:19:34.699Z,2.05
2019-01-15T00:22:41.809Z,1.83
2019-01-15T00:25:48.884Z,2.12
2019-01-15T00:28:55.921Z,1.93
2019-01-15T00:32:02.897Z,2.63
2019-01-15T00:35:10.268Z,1.53
2019-01-15T00:38:17.212Z,1.63
2019-01-15T00:41:24.980Z,1.27
2019-01-15T00:44:32.006Z,1.70
2019-01-15T00:47:39.155Z,2.03
2019-01-15T00:50:46.279Z,1.57
2019-01-15T00:53:53.285Z,2.80
2019-01-15T00:57:00.323Z,1.57
2019-01-15T01:00:11.654Z,2.57
2019-01-15T01:03:18.594Z,1.43
2019-01-15T01:06:25.664Z,1.83
2019-01-15T01:09:32.727Z,1.63
2019-01-15T01:12:39.736Z,1.87
2019-01-15T01:15:46.802Z,2.27
2019-01-15T01:18:53.956Z,2.23
2019-01-15T01:22:01.518Z,2.63
2019-01-15T01:25:10.426Z,1.30
2019-01-15T01:28:17.276Z,2.07
2019-01-15T01:31:24.239Z,1.80
2019-01-15T01:34:31.457Z,1.33
2019-01-15T01:37:38.567Z,1.27
2019-01-15T01:40:45.692Z,1.87
2019-01-15T01:43:52.692Z,1.82
2019-01-15T01:46:59.619Z,2.33
2019-01-15T01:50:07.915Z,1.87
2019-01-15T01:53:14.817Z,2.20
2019-01-15T01:56:21.796Z,1.90
2019-01-15T01:59:28.846Z,1.57
2019-01-15T02:02:35.905Z,1.40
2019-01-15T02:05:42.906Z,1.67
2019-01-15T02:08:49.974Z,2.07
2019-01-15T02:11:56.998Z,1.63
2019-01-15T02:15:04.654Z,2.00
2019-01-15T02:18:11.936Z,1.70
2019-01-15T02:21:19.010Z,1.87
2019-01-15T02:24:26.256Z,2.27
2019-01-15T02:27:33.570Z,1.33
2019-01-15T02:30:40.553Z,1.87
2019-01-15T02:33:47.562Z,1.80
2019-01-15T02:36:54.773Z,1.63
2019-01-15T02:40:01.878Z,1.70
2019-01-15T02:43:09.109Z,1.30
2019-01-15T02:46:18.446Z,2.50
2019-01-15T02:49:25.420Z,1.57
2019-01-15T02:52:32.538Z,1.17
2019-01-15T02:55:39.716Z,1.70
2019-01-15T02:58:47.946Z,1.80
2019-01-15T03:01:54.921Z,1.70
2019-01-15T03:05:02.017Z,1.90
2019-01-15T03:08:09.065Z,2.17
2019-01-15T03:11:16.294Z,1.17
2019-01-15T03:14:23.371Z,1.40
2019-01-15T03:17:30.362Z,2.60
2019-01-15T03:20:37.493Z,1.80
2019-01-15T03:23:44.592Z,1.00
2019-01-15T03:26:52.213Z,1.90
2019-01-15T03:29:59.302Z,1.40
2019-01-15T03:33:06.299Z,1.53
2019-01-15T03:36:13.513Z,1.83
2019-01-15T03:39:20.566Z,1.93
2019-01-15T03:42:27.638Z,2.43
2019-01-15T03:45:34.667Z,1.70
2019-01-15T03:48:41.663Z,1.83
2019-01-15T03:51:48.677Z,1.95
2019-01-15T03:54:55.785Z,1.87
2019-01-15T03:58:02.754Z,1.80
2019-01-15T04:01:10.034Z,2.02
2019-01-15T04:04:17.128Z,2.10
2019-01-15T04:07:24.576Z,1.80
2019-01-15T04:10:31.880Z,1.62
2019-01-15T04:13:39.026Z,2.07
2019-01-15T04:16:46.143Z,1.57
2019-01-15T04:19:53.173Z,1.30
2019-01-15T04:23:00.352Z,1.42
2019-01-15T04:26:07.382Z,1.80
2019-01-15T04:29:14.409Z,1.70
2019-01-15T04:32:21.538Z,1.62
2019-01-15T04:35:28.456Z,1.20
2019-01-15T04:38:35.614Z,1.53
2019-01-15T04:41:42.580Z,1.45
2019-01-15T04:44:49.525Z,1.30
2019-01-15T04:47:56.438Z,1.80
2019-01-15T04:51:05.311Z,1.47
2019-01-15T04:54:12.045Z,2.30
2019-01-15T04:57:19.395Z,1.95
2019-01-15T05:00:26.516Z,1.87
2019-01-15T05:03:33.573Z,2.40
2019-01-15T05:06:40.538Z,1.50
2019-01-15T05:09:47.612Z,2.20
2019-01-15T05:12:54.831Z,1.65
2019-01-15T05:16:01.890Z,1.25
2019-01-15T05:19:08.901Z,2.42
2019-01-15T05:22:15.992Z,1.72
2019-01-15T05:25:23.215Z,1.27
2019-01-15T05:28:30.293Z,1.60
2019-01-15T05:31:37.655Z,2.47
2019-01-15T05:34:44.739Z,2.40
2019-01-15T05:37:51.975Z,1.80
2019-01-15T05:40:59.039Z,2.20
2019-01-15T05:44:06.288Z,1.93
2019-01-15T05:47:13.821Z,2.30
2019-01-15T05:50:25.836Z,2.03
2019-01-15T05:53:32.835Z,2.30
2019-01-15T05:56:40.166Z,2.03
2019-01-15T05:59:48.491Z,1.80
2019-01-15T06:02:55.499Z,2.17
2019-01-15T06:06:02.609Z,1.87
2019-01-15T06:09:11.240Z,2.75
2019-01-15T06:12:19.292Z,3.00
2019-01-15T06:15:26.644Z,2.95
2019-01-15T06:18:33.654Z,2.60
2019-01-15T06:21:40.674Z,3.70
2019-01-15T06:24:47.706Z,3.17
2019-01-15T06:27:54.908Z,3.80
2019-01-15T06:31:01.832Z,2.65
2019-01-15T06:34:08.973Z,3.40
2019-01-15T06:37:15.823Z,3.05
2019-01-15T06:40:23.206Z,3.30
2019-01-15T06:43:30.240Z,3.12
2019-01-15T06:46:37.462Z,3.12
2019-01-15T06:49:44.515Z,3.12
2019-01-15T06:52:51.620Z,2.62
2019-01-15T06:55:58.703Z,4.08
2019-01-15T06:59:05.685Z,2.90
2019-01-15T07:02:12.906Z,3.42
2019-01-15T07:05:20.387Z,3.47
2019-01-15T07:08:27.541Z,2.90
2019-01-15T07:11:34.629Z,3.65
2019-01-15T07:14:41.645Z,3.60
2019-01-15T07:17:48.695Z,3.02
2019-01-15T07:20:57.399Z,3.42
2019-01-15T07:24:04.957Z,3.58
2019-01-15T07:27:11.879Z,3.35
2019-01-15T07:30:39.419Z,3.60
2019-01-15T07:33:46.450Z,3.20
2019-01-15T07:36:53.424Z,3.37
2019-01-15T07:40:00.532Z,2.87
2019-01-15T07:43:07.563Z,3.70
2019-01-15T07:46:14.589Z,3.62
2019-01-15T07:49:21.787Z,3.92
2019-01-15T07:52:28.757Z,3.57
2019-01-15T07:55:38.703Z,3.97
2019-01-15T07:58:45.687Z,3.80
2019-01-15T08:01:52.862Z,3.87
2019-01-15T08:04:59.845Z,3.40
2019-01-15T08:08:08.420Z,4.80
2019-01-15T08:11:15.458Z,3.63
2019-01-15T08:14:22.456Z,3.33
2019-01-15T08:17:29.426Z,3.17
2019-01-15T08:20:36.473Z,3.57
2019-01-15T08:23:44.389Z,3.33
2019-01-15T08:26:51.579Z,3.30
2019-01-15T08:29:58.477Z,2.57
2019-01-15T08:33:05.824Z,4.23
2019-01-15T08:36:15.276Z,2.53
2019-01-15T08:39:22.267Z,2.90
2019-01-15T08:42:29.246Z,3.33
2019-01-15T08:45:36.187Z,3.80
2019-01-15T08:48:44.407Z,4.00
2019-01-15T08:51:51.537Z,2.73
2019-01-15T08:54:58.629Z,2.43
2019-01-15T08:58:05.899Z,2.93
2019-01-15T09:01:12.997Z,2.30
2019-01-15T09:04:20.959Z,2.27
2019-01-15T09:07:28.231Z,2.00
2019-01-15T09:10:35.221Z,2.57
2019-01-15T09:13:42.203Z,1.97
2019-01-15T09:16:50.266Z,2.33
2019-01-15T09:19:57.294Z,2.40
2019-01-15T09:23:04.404Z,1.47
2019-01-15T09:26:11.409Z,1.60
2019-01-15T09:29:19.059Z,1.93
2019-01-15T09:32:26.075Z,1.67
2019-01-15T09:35:33.175Z,1.70
2019-01-15T09:38:40.173Z,1.70
2019-01-15T09:41:47.326Z,1.93
2019-01-15T09:44:54.462Z,1.40
2019-01-15T09:48:06.329Z,2.03
2019-01-15T09:51:13.582Z,1.80
2019-01-15T09:54:20.477Z,1.80
2019-01-15T09:57:27.630Z,1.60
2019-01-15T10:00:34.601Z,1.80
2019-01-15T10:03:41.576Z,1.70
2019-01-15T10:06:48.684Z,2.27
2019-01-15T10:09:55.648Z,1.93
2019-01-15T10:13:02.769Z,2.13
2019-01-15T10:16:11.235Z,1.47
2019-01-15T10:19:18.362Z,2.07
2019-01-15T10:22:25.391Z,2.07
2019-01-15T10:25:33.032Z,2.40
2019-01-15T10:28:40.080Z,2.20
2019-01-15T10:32:38.414Z,1.80
2019-01-15T10:35:56.520Z,2.57
2019-01-15T10:39:06.402Z,1.87
2019-01-15T10:42:13.631Z,2.00
2019-01-15T10:45:20.799Z,1.60
2019-01-15T10:48:28.166Z,2.10
2019-01-15T10:51:35.195Z,2.70
2019-01-15T10:54:42.262Z,2.43
2019-01-15T10:57:49.380Z,1.97
2019-01-15T11:00:56.300Z,2.10
2019-01-15T11:04:03.310Z,2.20
2019-01-15T11:07:10.259Z,1.93
2019-01-15T11:10:18.554Z,2.57
2019-01-15T11:13:25.553Z,2.47
2019-01-15T11:16:33.704Z,2.23
2019-01-15T11:19:40.716Z,2.10
2019-01-15T11:22:47.667Z,2.83
2019-01-15T11:25:54.743Z,2.23
2019-01-15T11:29:01.741Z,2.53
2019-01-15T11:32:08.809Z,2.27
2019-01-15T11:35:15.801Z,2.53
2019-01-15T11:38:22.979Z,2.57
2019-01-15T11:41:30.042Z,2.70
2019-01-15T11:44:37.123Z,2.47
2019-01-15T11:47:44.343Z,2.97
2019-01-15T11:50:51.403Z,2.50
2019-01-15T11:53:58.288Z,2.90
2019-01-15T11:57:05.171Z,2.80
2019-01-15T12:00:17.822Z,2.40
2019-01-15T12:03:32.509Z,2.27
2019-01-15T12:06:48.198Z,2.97
2019-01-15T12:10:14.300Z,2.33
2019-01-15T12:13:43.627Z,2.40
2019-01-15T12:17:18.170Z,2.97
2019-01-15T12:20:56.394Z,3.27
2019-01-15T12:24:25.534Z,3.27
2019-01-15T12:27:49.914Z,2.87
2019-01-15T12:31:24.695Z,2.60
2019-01-15T12:34:49.049Z,2.77
2019-01-15T12:38:13.756Z,3.20
2019-01-15T12:41:57.609Z,3.20
2019-01-15T12:45:44.736Z,2.53
2019-01-15T12:49:09.122Z,3.10
2019-01-15T12:52:35.014Z,3.33
2019-01-15T12:56:13.231Z,3.17
2019-01-15T12:59:37.444Z,3.93
2019-01-15T13:02:55.342Z,4.17
2019-01-15T13:06:21.673Z,3.60
2019-01-15T13:09:47.798Z,3.20
2019-01-15T13:13:16.612Z,4.10
2019-01-15T13:17:00.431Z,3.40
2019-01-15T13:20:46.406Z,3.37
2019-01-15T13:24:21.188Z,3.67
2019-01-15T13:27:53.023Z,4.23
2019-01-15T13:31:17.664Z,3.23
2019-01-15T13:34:49.540Z,3.90
2019-01-15T13:38:14.114Z,3.90
2019-01-15T13:41:31.577Z,4.13
2019-01-15T13:44:56.939Z,3.77
2019-01-15T13:48:39.731Z,4.00
2019-01-15T13:52:16.780Z,3.90
2019-01-15T13:55:51.635Z,4.07
2019-01-15T13:59:17.641Z,4.07
2019-01-15T14:02:43.482Z,4.03
2019-01-15T14:06:08.092Z,4.80
2019-01-15T14:09:39.932Z,3.83
2019-01-15T14:13:08.853Z,4.07
2019-01-15T14:16:37.950Z,4.97
2019-01-15T14:20:06.899Z,4.27
2019-01-15T14:23:35.790Z,3.63
2019-01-15T14:27:13.855Z,3.97
2019-01-15T14:30:48.717Z,4.10
2019-01-15T14:34:17.516Z,5.50
2019-01-15T14:37:51.450Z,3.37
2019-01-15T14:41:19.813Z,4.10
2019-01-15T14:44:51.799Z,3.77
2019-01-15T14:48:25.320Z,4.50
2019-01-15T14:51:49.539Z,3.97
2019-01-15T14:55:24.087Z,5.10
2019-01-15T14:58:53.779Z,4.37
2019-01-15T15:02:22.807Z,3.77
2019-01-15T15:05:51.606Z,5.50
2019-01-15T15:09:12.725Z,3.23
2019-01-15T15:12:32.447Z,4.23
2019-01-15T15:16:03.505Z,3.30
2019-01-15T15:19:22.858Z,3.60
2019-01-15T15:22:51.667Z,3.97
2019-01-15T15:26:15.951Z,3.10
2019-01-15T15:29:32.281Z,4.00
2019-01-15T15:32:56.960Z,3.23
2019-01-15T15:36:25.595Z,2.67
2019-01-15T15:39:52.309Z,3.37
2019-01-15T15:43:16.836Z,4.10
2019-01-15T15:46:48.902Z,2.77
2019-01-15T15:50:13.361Z,3.43
2019-01-15T15:53:39.249Z,4.00
2019-01-15T15:57:14.442Z,3.63
2019-01-15T16:00:43.391Z,2.97
2019-01-15T16:04:09.331Z,2.60
2019-01-15T16:07:44.139Z,3.60
2019-01-15T16:11:08.571Z,3.23
2019-01-15T16:14:33.125Z,3.93
2019-01-15T16:18:03.960Z,3.03
2019-01-15T16:21:28.568Z,2.70
2019-01-15T16:25:09.629Z,2.97
2019-01-15T16:28:35.663Z,3.50
2019-01-15T16:32:16.352Z,2.80
2019-01-15T16:35:40.693Z,2.77
2019-01-15T16:39:09.743Z,3.13
2019-01-15T16:42:35.755Z,3.13
2019-01-15T16:46:01.755Z,3.33
2019-01-15T16:49:29.673Z,2.80
2019-01-15T16:52:54.320Z,2.77
2019-01-15T16:56:38.398Z,2.90
2019-01-15T17:00:10.525Z,2.90
2019-01-15T17:03:42.669Z,3.10
2019-01-15T17:07:11.312Z,2.93
2019-01-15T17:10:35.690Z,2.60
2019-01-15T17:14:16.809Z,3.20
2019-01-15T17:17:37.479Z,2.77
2019-01-15T17:21:12.408Z,4.20
2019-01-15T17:24:41.131Z,2.73
2019-01-15T17:28:10.076Z,3.13
2019-01-15T17:31:46.538Z,3.00
2019-01-15T17:35:27.294Z,2.83
2019-01-15T17:39:08.390Z,3.60
2019-01-15T17:42:39.254Z,2.57
2019-01-15T17:46:07.909Z,2.87
2019-01-15T17:49:36.617Z,3.63
2019-01-15T17:53:01.256Z,3.80
2019-01-15T17:56:21.601Z,2.60
2019-01-15T17:59:53.409Z,2.50
2019-01-15T18:03:18.557Z,2.80
2019-01-15T18:06:47.448Z,3.10
2019-01-15T18:10:11.405Z,3.00
2019-01-15T18:13:33.124Z,2.20
2019-01-15T18:16:57.287Z,2.80
2019-01-15T18:20:22.726Z,2.30
2019-01-15T18:23:48.688Z,3.03
2019-01-15T18:27:07.585Z,4.33
2019-01-15T18:30:39.623Z,3.23
2019-01-15T18:34:02.390Z,2.00
2019-01-15T18:37:34.260Z,2.50
2019-01-15T18:41:15.151Z,2.07
2019-01-15T18:44:39.978Z,2.07
2019-01-15T18:48:06.278Z,2.67
2019-01-15T18:51:41.229Z,2.37
2019-01-15T18:55:11.762Z,2.37
2019-01-15T18:58:40.633Z,2.50
2019-01-15T19:02:05.020Z,2.43
2019-01-15T19:05:42.851Z,3.00
2019-01-15T19:09:09.022Z,1.87
2019-01-15T19:12:43.688Z,2.00
2019-01-15T19:16:15.285Z,4.03
2019-01-15T19:19:48.233Z,2.47
2019-01-15T19:23:20.443Z,2.33
2019-01-15T19:26:44.778Z,2.53
2019-01-15T19:30:11.142Z,2.70
2019-01-15T19:33:27.344Z,2.60
2019-01-15T19:36:53.144Z,2.20
2019-01-15T19:40:23.961Z,2.60
2019-01-15T19:43:46.451Z,2.47
2019-01-15T19:47:11.049Z,2.03
2019-01-15T19:50:46.470Z,2.57
2019-01-15T19:54:01.075Z,2.57
2019-01-15T19:57:26.838Z,2.30
2019-01-15T20:00:54.616Z,2.30
2019-01-15T20:04:21.787Z,2.50
2019-01-15T20:07:48.442Z,2.80
2019-01-15T20:11:29.611Z,2.20
2019-01-15T20:14:53.817Z,2.57
2019-01-15T20:18:11.714Z,2.10
2019-01-15T20:21:55.797Z,2.97
2019-01-15T20:25:22.767Z,2.40
2019-01-15T20:29:00.499Z,2.77
2019-01-15T20:32:25.107Z,2.83
2019-01-15T20:35:51.124Z,2.73
2019-01-15T20:39:20.008Z,2.03
2019-01-15T20:42:51.756Z,2.57
2019-01-15T20:46:20.343Z,2.40
2019-01-15T20:49:46.314Z,2.70
2019-01-15T20:53:15.023Z,1.80
2019-01-15T20:56:58.714Z,2.30
2019-01-15T21:00:29.152Z,2.60
2019-01-15T21:03:49.437Z,3.20
2019-01-15T21:07:24.338Z,2.77
2019-01-15T21:10:48.959Z,4.00
2019-01-15T21:14:13.370Z,2.77
2019-01-15T21:17:45.116Z,2.53
2019-01-15T21:21:19.884Z,2.50
2019-01-15T21:24:52.235Z,2.37
2019-01-15T21:28:16.161Z,2.53
2019-01-15T21:31:51.472Z,3.33
2019-01-15T21:35:20.498Z,2.53
2019-01-15T21:38:35.871Z,3.20
2019-01-15T21:42:07.890Z,2.70
2019-01-15T21:45:32.576Z,2.40
2019-01-15T21:48:54.355Z,3.00
2019-01-15T21:52:20.724Z,2.70
2019-01-15T21:55:55.939Z,2.50
2019-01-15T21:59:14.397Z,3.57
2019-01-15T22:02:40.441Z,2.73
2019-01-15T22:06:06.384Z,2.77
2019-01-15T22:09:31.020Z,2.60
2019-01-15T22:13:03.286Z,2.67
2019-01-15T22:16:27.638Z,3.63
2019-01-15T22:20:02.468Z,2.43
2019-01-15T22:23:32.177Z,3.03
2019-01-15T22:27:01.432Z,2.50
2019-01-15T22:30:45.452Z,2.50
2019-01-15T22:34:22.726Z,3.50
2019-01-15T22:37:54.470Z,2.07
2019-01-15T22:41:26.495Z,2.17
2019-01-15T22:44:52.330Z,2.40
2019-01-15T22:48:21.310Z,2.33
2019-01-15T22:51:48.287Z,2.13
2019-01-15T22:55:29.160Z,2.33
2019-01-15T22:59:04.150Z,2.30
2019-01-15T23:02:22.644Z,2.20
2019-01-15T23:05:51.352Z,2.13
2019-01-15T23:09:17.184Z,2.27
2019-01-15T23:12:43.054Z,2.10
2019-01-15T23:16:07.351Z,2.53
2019-01-15T23:19:45.407Z,2.17
2019-01-15T23:23:09.892Z,2.00
2019-01-15T23:26:47.504Z,2.13
2019-01-15T23:30:12.229Z,2.60
2019-01-15T23:33:38.173Z,2.77
2019-01-15T23:37:02.809Z,2.20
2019-01-15T23:40:37.722Z,1.90
2019-01-15T23:44:02.177Z,2.20
2019-01-15T23:47:23.550Z,2.40
2019-01-15T23:50:52.227Z,2.23
2019-01-15T23:54:27.206Z,2.13
2019-01-15T23:58:07.318Z,1.80
